Aérodrome :
LOGIN :

S'inscrire | Disclaimer

   EN    FR    IT 

 










Légende :    VFR   VFR Marginal   IFR   IFR Intensif   IFR Très Intensif
Visi : 
Plafond : 
>= 8 km
>= 3000ft
5 à 8 km
1000 à 3000 ft
1500m à 5 km
500 à 1000 ft
800 à 1500m
200 à 500 ft
< 800m
< 200 ft
Symboles :   Orages  Brouillard  Fortes neiges  Fortes précipitations  Vent > 20 kt
SIGMETs :   Divers  Orages  Givrage  Turbulence  Onde Orograph.  Cendres Volcan.






- Altitude de l'aérodrome : 245 ft
- Code IATA : BIQ


LFBZ - Biarritz

DERNIER METAR :
  • 030730Z AUTO 14003KT 110V170 9999 BKN050 19/15 Q1017 NOSIG

METARs EXPIRÉS :
  • 030700Z AUTO 17003KT 140V200 9999 BKN054 18/15 Q1018 NOSIG
  • 030630Z AUTO 20002KT 9999 FEW001 BKN220 17/15 Q1018 NOSIG
  • 030600Z AUTO 18003KT 9999 OVC030 17/15 Q1018 NOSIG
  • 030530Z AUTO 21003KT 9999 BKN029 BKN100 16/14 Q1018 NOSIG
  • 030500Z AUTO 17002KT 9999 FEW029 BKN230 16/14 Q1017 NOSIG

TAF TAF LFBZ
Valide du 03 à 06h jusqu'au 04 à 06h UTC


030500Z 0306/0406 VRB03KT 9999 BKN020
BECMG 0310/0312 31010KT
BECMG 0316/0318 VRB03KT
TEMPO 0318/0406 -RA
PROB40
TEMPO 0403/0406 2000 RA BKN005



MET'MAP, la Météo Aéronautique d'un coup d'oeil ! - Copyright ORBIFLY Décembre 2007 - Disclaimer

ORBIFLY MET'MAP TEAM :

Programmation & Développement : Alexandra Zaïnal
Sur une idée originale de : Baudouin d'Aumeries
Assistance à la programmation : Marc-Olivier Méhu
Soutien technique & logistique : Manuel Goepfert

Contact : metmap@orbifly.com




SOURCES & CREDITS :

   NOAA